Time;durP1;ratioP1;P1;durP2;ratioP2;P2;SDS_P1;SDS_P2;PMS_P1;PMS_P2;Temp;Humidity;BMP_temperature;BMP_pressure;BME280_temperature;BME280_humidity;BME280_pressure;Samples;Min_cycle;Max_cycle;Signal;HPM_P1;HPM_P2
2022/04/26 03:36:15;;;;;;;33.28;17.23;;;;;;;11.56;41.23;100931.38;5013079;28;20053;-67
2022/04/26 03:38:43;;;;;;;30.27;15.68;;;;;;;11.53;41.31;100936.22;5006433;28;20080;-67
2022/04/26 03:41:10;;;;;;;27.00;15.02;;;;;;;11.52;41.35;100929.16;5012816;28;20490;-67
2022/04/26 03:43:37;;;;;;;25.95;15.45;;;;;;;11.39;41.75;100940.34;5012839;28;20070;-68
2022/04/26 03:46:04;;;;;;;27.98;15.73;;;;;;;11.44;41.42;100946.91;5010904;28;20065;-68
2022/04/26 03:48:30;;;;;;;39.30;17.23;;;;;;;11.28;41.87;100936.09;5011222;28;20052;-68
2022/04/26 03:51:01;;;;;;;29.27;15.98;;;;;;;11.31;41.75;100938.47;5011270;28;20050;-68
2022/04/26 03:53:27;;;;;;;33.08;16.42;;;;;;;10.65;42.87;100936.31;5014719;28;20057;-68
2022/04/26 03:55:54;;;;;;;29.42;14.63;;;;;;;10.72;42.93;100938.25;5014507;28;20041;-68
2022/04/26 03:58:20;;;;;;;30.40;16.08;;;;;;;10.65;43.24;100936.31;5014167;28;20129;-67
2022/04/26 04:00:47;;;;;;;29.83;16.02;;;;;;;10.30;43.74;100942.53;5014043;28;20062;-67
2022/04/26 04:03:14;;;;;;;30.35;16.65;;;;;;;10.46;43.51;100946.22;5012695;28;20068;-67
2022/04/26 04:05:42;;;;;;;29.90;14.93;;;;;;;10.47;43.60;100941.69;5012998;28;20054;-67
2022/04/26 04:08:08;;;;;;;30.08;15.25;;;;;;;10.62;43.13;100944.72;5013884;28;20405;-67
2022/04/26 04:10:35;;;;;;;26.33;14.63;;;;;;;10.79;42.53;100943.84;5014361;28;20073;-67
2022/04/26 04:13:01;;;;;;;26.67;14.43;;;;;;;10.84;42.80;100946.88;5013979;28;20046;-67
2022/04/26 04:15:28;;;;;;;31.52;14.95;;;;;;;11.10;41.95;100946.91;5009440;28;20118;-67
2022/04/26 04:17:54;;;;;;;24.13;14.85;;;;;;;11.17;41.87;100953.34;5014364;28;20045;-67
2022/04/26 04:20:21;;;;;;;32.80;15.68;;;;;;;11.04;42.19;100944.84;5013736;28;20132;-68
2022/04/26 04:22:53;;;;;;;30.65;15.30;;;;;;;11.01;42.28;100955.06;5014215;28;20414;-67
2022/04/26 04:25:20;;;;;;;27.30;15.65;;;;;;;10.83;42.36;100955.09;5012598;28;20053;-67
2022/04/26 04:27:47;;;;;;;30.23;16.42;;;;;;;10.75;42.58;100963.91;5014161;28;20049;-68
2022/04/26 04:30:14;;;;;;;31.20;14.43;;;;;;;11.18;41.86;100960.38;5014492;28;20518;-68
2022/04/26 04:32:40;;;;;;;31.33;15.18;;;;;;;10.83;42.46;100961.31;5013649;28;20133;-68
2022/04/26 04:35:07;;;;;;;30.58;15.57;;;;;;;10.31;43.62;100957.66;5014471;28;20128;-68
2022/04/26 04:37:34;;;;;;;28.05;15.10;;;;;;;10.54;43.41;100966.09;5013649;28;20046;-68
2022/04/26 04:40:00;;;;;;;37.47;16.08;;;;;;;10.28;44.05;100965.00;5012537;28;20129;-68
2022/04/26 04:42:27;;;;;;;36.83;17.15;;;;;;;10.34;43.67;100962.69;5013760;28;20172;-67
2022/04/26 04:44:53;;;;;;;29.38;15.85;;;;;;;11.01;42.51;100963.97;5013316;28;20133;-67
2022/04/26 04:47:20;;;;;;;29.77;16.13;;;;;;;10.67;42.85;100972.75;5012585;28;20144;-68
2022/04/26 04:49:46;;;;;;;28.45;15.27;;;;;;;11.14;42.08;100974.28;5012318;28;20065;-67
2022/04/26 04:52:13;;;;;;;29.85;15.07;;;;;;;11.39;41.55;100976.13;5013813;28;20072;-68
2022/04/26 04:54:39;;;;;;;34.90;15.85;;;;;;;11.67;41.02;100973.25;5012075;28;20058;-69
2022/04/26 04:57:05;;;;;;;29.75;15.07;;;;;;;11.23;41.54;100973.31;5012660;28;20049;-67
2022/04/26 04:59:32;;;;;;;26.77;14.80;;;;;;;11.16;41.96;100978.47;5011740;28;20056;-67
2022/04/26 05:02:00;;;;;;;29.02;14.55;;;;;;;11.67;40.91;100982.16;5016641;28;20061;-68
2022/04/26 05:04:27;;;;;;;29.10;13.60;;;;;;;10.82;42.34;100982.94;5015103;28;20053;-68
2022/04/26 05:06:53;;;;;;;27.08;14.02;;;;;;;10.57;43.06;100980.03;5012910;28;20481;-68
2022/04/26 05:09:20;;;;;;;32.92;15.02;;;;;;;10.29;43.68;100989.97;5012623;28;20133;-67
2022/04/26 05:11:46;;;;;;;29.90;14.13;;;;;;;10.52;43.34;100990.41;5012272;28;20120;-68
2022/04/26 05:14:13;;;;;;;29.80;14.10;;;;;;;10.61;43.36;100993.97;5012281;28;20462;-68
2022/04/26 05:16:39;;;;;;;26.13;14.38;;;;;;;11.21;41.58;100992.28;5012681;28;20194;-68
2022/04/26 05:19:06;;;;;;;22.58;14.18;;;;;;;11.51;41.05;100994.63;5012803;28;20491;-66
2022/04/26 05:21:33;;;;;;;27.35;12.40;;;;;;;10.29;42.93;101000.69;5013379;28;20130;-67
2022/04/26 05:26:45;;;;;;;43.00;14.32;;;;;;;11.15;41.39;100994.75;5013641;28;20058;-67
2022/04/26 05:29:11;;;;;;;30.58;11.85;;;;;;;11.09;41.61;100993.53;5011872;28;20041;-68
2022/04/26 05:31:37;;;;;;;25.35;12.65;;;;;;;11.83;39.93;100994.84;5003890;28;20054;-66
2022/04/26 05:34:04;;;;;;;26.77;13.07;;;;;;;12.22;39.14;100996.97;5007152;28;20048;-68
2022/04/26 05:36:31;;;;;;;26.13;12.40;;;;;;;12.23;38.97;101000.50;5011148;28;20072;-66
2022/04/26 05:38:59;;;;;;;24.75;12.00;;;;;;;12.46;38.75;101008.81;5012633;28;20073;-68
2022/04/26 05:41:26;;;;;;;27.27;11.88;;;;;;;12.57;38.19;101006.63;5011283;28;20432;-69
2022/04/26 05:43:52;;;;;;;22.33;11.25;;;;;;;12.22;38.65;101005.06;5009538;28;20045;-68
2022/04/26 05:46:19;;;;;;;23.25;10.60;;;;;;;11.29;39.56;101010.28;5020555;28;20046;-67
2022/04/26 05:48:45;;;;;;;19.17;10.93;;;;;;;11.36;39.34;101010.50;5006531;28;20041;-68
2022/04/26 05:51:12;;;;;;;23.75;10.20;;;;;;;11.17;40.00;101017.78;5012492;28;20394;-68
2022/04/26 05:53:40;;;;;;;22.88;10.13;;;;;;;11.07;39.90;101017.03;5011998;28;20050;-68
2022/04/26 05:56:08;;;;;;;22.55;9.90;;;;;;;11.10;39.79;101018.53;5015511;28;20469;-67
2022/04/26 05:58:35;;;;;;;21.25;10.15;;;;;;;10.68;40.54;101022.72;5014990;28;20057;-68
2022/04/26 06:01:03;;;;;;;20.70;10.10;;;;;;;11.00;40.02;101018.66;5011987;28;20502;-68
2022/04/26 06:03:29;;;;;;;23.77;10.32;;;;;;;11.53;39.06;101017.66;5010835;28;20053;-68
2022/04/26 06:05:57;;;;;;;24.58;9.93;;;;;;;11.44;38.97;101008.69;5012005;28;20129;-68
2022/04/26 06:08:23;;;;;;;22.52;10.25;;;;;;;11.55;38.31;101006.75;5011225;28;20096;-68
2022/04/26 06:10:50;;;;;;;20.23;8.98;;;;;;;11.77;37.76;101008.09;5011767;28;20080;-67
2022/04/26 06:13:16;;;;;;;16.20;8.57;;;;;;;12.18;36.88;101006.38;5011559;28;20042;-68
2022/04/26 06:15:42;;;;;;;13.43;8.82;;;;;;;11.79;36.79;101004.22;5010288;28;20153;-68
2022/04/26 06:18:09;;;;;;;18.98;8.43;;;;;;;12.26;36.08;101009.09;5011267;28;20439;-68
2022/04/26 06:20:36;;;;;;;21.55;7.97;;;;;;;12.69;35.15;101009.81;5011865;28;20100;-68
2022/04/26 06:23:02;;;;;;;18.85;7.60;;;;;;;12.62;34.88;101008.81;5004599;28;20046;-68
2022/04/26 06:25:29;;;;;;;16.50;7.45;;;;;;;12.99;34.14;101011.03;5011884;28;20049;-68
2022/04/26 06:27:55;;;;;;;15.07;7.45;;;;;;;12.00;34.68;101013.69;5011483;28;20069;-68
2022/04/26 06:30:23;;;;;;;10.77;6.88;;;;;;;12.76;34.11;101008.19;5010029;28;20088;-68
2022/04/26 06:32:49;;;;;;;17.00;7.18;;;;;;;11.98;34.59;101013.03;5011080;28;20130;-67
2022/04/26 06:35:16;;;;;;;16.23;6.22;;;;;;;12.99;33.29;101015.59;5010976;28;20128;-68
2022/04/26 06:37:42;;;;;;;14.88;5.60;;;;;;;13.05;31.45;101006.84;5011396;28;20062;-68
2022/04/26 06:40:09;;;;;;;14.18;5.28;;;;;;;13.09;31.40;101011.72;5010727;28;20050;-68
2022/04/26 06:42:36;;;;;;;11.20;5.20;;;;;;;14.16;30.17;101014.13;5011543;28;20048;-68
2022/04/26 06:45:02;;;;;;;10.70;5.32;;;;;;;14.40;29.09;101016.69;5011218;28;20461;-68
2022/04/26 06:47:29;;;;;;;13.05;5.65;;;;;;;14.92;28.69;101010.59;5011957;28;20153;-69
2022/04/26 06:49:55;;;;;;;16.75;5.60;;;;;;;15.03;28.39;101009.31;5011211;28;20041;-69
2022/04/26 06:52:22;;;;;;;12.88;5.78;;;;;;;14.96;28.26;101014.63;5010947;28;20084;-68
2022/04/26 06:54:48;;;;;;;14.93;6.15;;;;;;;15.71;27.41;101004.78;5011511;28;20049;-68
2022/04/26 06:57:16;;;;;;;11.95;5.20;;;;;;;16.19;26.85;101003.31;5010833;28;20046;-69
2022/04/26 06:59:42;;;;;;;6.95;4.35;;;;;;;15.42;26.71;101011.81;5009927;28;20060;-68
2022/04/26 07:02:08;;;;;;;9.02;4.38;;;;;;;15.14;26.71;101011.56;5011436;28;20162;-68
2022/04/26 07:04:35;;;;;;;7.40;4.07;;;;;;;14.76;26.89;101014.25;5009886;28;20453;-68
2022/04/26 07:07:03;;;;;;;9.10;4.07;;;;;;;15.38;26.38;101006.97;5011442;28;20054;-68
2022/04/26 07:09:29;;;;;;;8.30;4.07;;;;;;;15.97;26.35;101006.97;5010692;28;20133;-67
2022/04/26 07:11:57;;;;;;;6.82;4.30;;;;;;;16.38;25.46;101011.84;5010515;28;20133;-68
2022/04/26 07:14:23;;;;;;;6.97;3.88;;;;;;;16.85;24.64;101014.03;5002524;28;20060;-67
2022/04/26 07:16:50;;;;;;;6.47;4.13;;;;;;;17.65;23.82;101014.66;5023137;28;20134;-68
2022/04/26 07:19:17;;;;;;;8.25;3.70;;;;;;;15.77;25.23;101012.13;5010783;28;20042;-68
2022/04/26 07:21:46;;;;;;;11.75;3.83;;;;;;;17.22;23.92;101019.31;5010866;28;20034;-67
2022/04/26 07:24:32;;;;;;;10.63;4.88;;;;;;;17.52;23.58;101018.09;5010117;28;20049;-67
2022/04/26 07:26:59;;;;;;;6.22;3.67;;;;;;;18.28;22.68;101015.38;5010968;28;20053;-67
2022/04/26 07:29:26;;;;;;;4.30;2.90;;;;;;;18.05;22.18;101014.81;5010531;28;20042;-67
2022/04/26 07:31:52;;;;;;;7.10;3.97;;;;;;;18.33;21.78;101006.59;5010668;28;20129;-67
2022/04/26 07:34:24;;;;;;;10.30;4.57;;;;;;;18.37;22.16;101013.28;5009996;28;20133;-67
2022/04/26 07:36:53;;;;;;;7.65;4.30;;;;;;;19.11;21.40;101014.28;5009983;28;20100;-68
2022/04/26 07:39:20;;;;;;;7.93;3.83;;;;;;;18.59;21.92;101024.03;5002780;28;20046;-67
2022/04/26 07:41:47;;;;;;;5.10;3.40;;;;;;;18.90;21.17;101035.16;5009306;28;20054;-67
2022/04/26 07:44:15;;;;;;;7.70;2.80;;;;;;;19.34;20.47;101019.25;5009973;28;20049;-68
2022/04/26 07:46:44;;;;;;;7.57;2.67;;;;;;;19.18;20.20;101024.09;5010735;28;20125;-67
2022/04/26 07:49:12;;;;;;;6.85;3.03;;;;;;;20.06;19.57;101023.69;5010699;28;20508;-67
2022/04/26 07:51:38;;;;;;;9.20;2.30;;;;;;;19.76;19.69;101026.09;5010899;28;20046;-68
2022/04/26 07:54:06;;;;;;;4.97;2.75;;;;;;;20.42;19.22;101028.59;5004591;28;20160;-68
2022/04/26 07:56:33;;;;;;;6.78;3.15;;;;;;;20.39;19.20;101023.56;5011255;28;20045;-68
2022/04/26 07:59:02;;;;;;;6.72;2.60;;;;;;;20.28;19.11;101026.13;5010205;28;20553;-68
2022/04/26 08:01:28;;;;;;;5.85;2.85;;;;;;;19.80;19.81;101023.81;5009618;28;20050;-69
2022/04/26 08:03:55;;;;;;;5.03;2.63;;;;;;;20.28;19.06;101024.25;5009657;28;20073;-68
2022/04/26 08:06:22;;;;;;;4.85;2.50;;;;;;;20.09;19.35;101033.34;5009980;28;20054;-67
2022/04/26 08:08:48;;;;;;;9.02;2.85;;;;;;;20.19;18.98;101034.53;5009723;28;20128;-68
2022/04/26 08:11:15;;;;;;;4.47;2.80;;;;;;;21.13;18.14;101027.50;5009109;28;20569;-68
2022/04/26 08:13:43;;;;;;;4.05;2.53;;;;;;;20.53;17.88;101028.97;5010128;28;20573;-68
2022/04/26 08:16:16;;;;;;;3.25;2.20;;;;;;;19.54;19.29;101036.38;5010123;28;20054;-67
2022/04/26 08:18:42;;;;;;;5.03;2.17;;;;;;;20.38;18.89;101035.50;5009277;28;20069;-68
2022/04/26 08:21:09;;;;;;;7.05;2.13;;;;;;;20.17;18.60;101036.63;5009792;28;20080;-68
2022/04/26 08:27:22;;;;;;;4.20;2.45;;;;;;;20.53;18.50;101035.25;5009126;28;20050;-68
2022/04/26 08:29:14;;;;;;;5.35;2.45;;;;;;;21.41;17.83;101037.09;5010060;28;20132;-67
2022/04/26 08:31:42;;;;;;;6.03;2.70;;;;;;;20.85;18.51;101038.81;5007678;28;20045;-68
2022/04/26 08:34:08;;;;;;;6.57;2.35;;;;;;;21.32;18.16;101032.97;5010207;28;20549;-69
2022/04/26 08:36:35;;;;;;;6.32;2.60;;;;;;;22.28;17.71;101037.00;5014064;28;20077;-68
2022/04/26 08:39:02;;;;;;;5.13;2.67;;;;;;;21.52;18.16;101035.53;5013415;28;20042;-68
2022/04/26 08:41:29;;;;;;;4.85;2.75;;;;;;;22.18;17.47;101037.53;5013161;28;20126;-68
2022/04/26 08:43:56;;;;;;;5.80;2.33;;;;;;;22.44;17.31;101039.09;5013307;28;20494;-67
2022/04/26 08:50:59;;;;;;;4.95;2.83;;;;;;;22.47;17.28;101046.03;5011790;28;20049;-67
2022/04/26 08:52:07;;;;;;;7.38;2.60;;;;;;;23.82;16.12;101044.47;5014072;28;20077;-71
2022/04/26 08:54:34;;;;;;;6.30;2.97;;;;;;;23.10;16.25;101052.84;5010649;28;20096;-71
2022/04/26 08:57:09;;;;;;;6.82;2.40;;;;;;;23.68;15.69;101044.69;5012923;28;20046;-71
2022/04/26 08:59:38;;;;;;;4.72;1.80;;;;;;;23.08;15.84;101042.13;5014288;28;20046;-71
2022/04/26 09:02:18;;;;;;;6.82;2.55;;;;;;;22.77;16.29;101037.78;5014905;28;20550;-71
2022/04/26 09:05:08;;;;;;;5.03;2.15;;;;;;;22.15;16.81;101039.88;5014077;28;20080;-71
2022/04/26 09:07:39;;;;;;;5.45;1.90;;;;;;;21.71;17.18;101041.88;4997291;28;20042;-74
2022/04/26 09:10:11;;;;;;;3.45;2.42;;;;;;;21.71;17.28;101050.88;4995434;28;20555;-74
2022/04/26 09:13:08;;;;;;;3.72;1.90;;;;;;;20.38;17.95;101045.56;4994283;28;20050;-74
2022/04/26 09:15:40;;;;;;;5.70;2.50;;;;;;;20.36;18.25;101056.69;4995045;28;20427;-74
2022/04/26 09:18:13;;;;;;;;;;;;;;;20.93;17.80;101045.88;4995779;28;20479;-73
2022/04/26 09:20:39;;;;;;;10.52;2.30;;;;;;;21.79;16.96;101045.16;4995306;28;20302;-74
2022/04/26 09:23:28;;;;;;;9.40;2.30;;;;;;;21.48;17.07;101047.97;4997134;28;20501;-73
2022/04/26 09:25:58;;;;;;;3.55;2.13;;;;;;;22.33;16.65;101045.34;4995260;28;20047;-74
2022/04/26 09:28:27;;;;;;;6.80;2.10;;;;;;;22.64;16.07;101041.56;4988263;28;20141;-74
2022/04/26 09:30:55;;;;;;;5.50;2.28;;;;;;;23.53;15.88;101044.31;4994951;28;20042;-75
2022/04/26 09:33:56;;;;;;;6.07;2.50;;;;;;;22.78;15.70;101039.47;4993971;28;20166;-74
2022/04/26 09:36:25;;;;;;;5.72;2.65;;;;;;;22.64;15.88;101040.75;4982931;28;20153;-73
2022/04/26 09:38:57;;;;;;;4.13;2.40;;;;;;;22.08;16.65;101032.63;4991552;28;20046;-74
2022/04/26 09:41:25;;;;;;;4.30;2.55;;;;;;;23.71;15.81;101033.25;4996488;28;20054;-74
2022/04/26 09:44:08;;;;;;;4.53;2.75;;;;;;;23.74;15.69;101034.66;4996195;28;20490;-74
2022/04/26 09:46:48;;;;;;;6.28;2.45;;;;;;;25.10;14.45;101032.16;4996476;28;20038;-74
2022/04/26 09:49:19;;;;;;;4.38;2.35;;;;;;;24.18;15.44;101030.41;4996433;28;20101;-74
2022/04/26 09:51:46;;;;;;;9.13;2.58;;;;;;;23.21;15.66;101036.47;4994412;28;20503;-73
2022/04/26 09:54:14;;;;;;;8.50;2.90;;;;;;;23.01;16.21;101035.94;4988924;28;20042;-74
2022/04/26 09:56:45;;;;;;;4.20;2.88;;;;;;;23.56;15.91;101032.91;4994948;28;20141;-74
2022/04/26 09:59:43;;;;;;;5.63;2.65;;;;;;;23.63;15.84;101027.31;4995602;28;20042;-74
2022/04/26 10:02:13;;;;;;;5.57;3.10;;;;;;;24.79;14.91;101025.28;4990526;28;20100;-74
2022/04/26 10:04:46;;;;;;;3.05;2.60;;;;;;;25.87;14.07;101036.03;5001106;28;20046;-74
2022/04/26 10:07:17;;;;;;;4.05;2.60;;;;;;;24.51;14.88;101028.03;4995423;28;20077;-74
2022/04/26 10:09:49;;;;;;;4.68;2.55;;;;;;;24.33;15.17;101031.78;4994225;28;20050;-75
2022/04/26 10:12:16;;;;;;;5.07;2.88;;;;;;;25.37;14.49;101032.31;4995581;28;20046;-74
2022/04/26 10:14:43;;;;;;;3.40;2.35;;;;;;;23.61;15.50;101040.41;4995912;28;20053;-74
2022/04/26 10:17:10;;;;;;;7.28;2.70;;;;;;;23.68;15.47;101038.38;4994943;28;20742;-74
2022/04/26 10:19:42;;;;;;;6.38;2.40;;;;;;;23.59;15.51;101031.59;4994933;28;20450;-74
2022/04/26 10:22:11;;;;;;;6.45;2.70;;;;;;;23.95;15.62;101031.34;4994808;28;20066;-74
2022/04/26 10:24:42;;;;;;;3.53;2.60;;;;;;;24.11;15.52;101024.25;4982808;28;20042;-74
2022/04/26 10:27:20;;;;;;;3.65;2.63;;;;;;;24.24;15.33;101030.53;4995116;28;20084;-74
2022/04/26 10:29:46;;;;;;;7.80;2.50;;;;;;;24.54;14.94;101025.66;4994444;28;20077;-74
2022/04/26 10:32:31;;;;;;;3.40;2.38;;;;;;;23.65;15.36;101031.47;4995003;28;20113;-74
2022/04/26 10:35:23;;;;;;;6.03;2.65;;;;;;;23.88;15.29;101029.78;5010573;28;20448;-74
2022/04/26 10:38:20;;;;;;;4.60;2.72;;;;;;;23.58;15.56;101035.41;5013867;28;20077;-74
2022/04/26 10:41:04;;;;;;;3.78;2.80;;;;;;;23.48;15.73;101030.53;5009213;28;20119;-74
2022/04/26 10:43:31;;;;;;;5.93;2.15;;;;;;;22.33;16.19;101035.25;5014739;28;20049;-74
2022/04/26 10:46:15;;;;;;;2.25;2.03;;;;;;;22.24;16.68;101036.63;5013015;28;20125;-74
2022/04/26 10:48:42;;;;;;;5.53;2.95;;;;;;;21.99;16.63;101019.50;5012904;28;20045;-73
2022/04/26 10:51:31;;;;;;;5.22;2.65;;;;;;;22.62;16.24;101023.72;5013062;28;20073;-74
2022/04/26 10:53:58;;;;;;;6.22;2.50;;;;;;;23.34;15.60;101024.47;5013690;28;20049;-74
2022/04/26 10:56:24;;;;;;;4.53;2.60;;;;;;;21.95;16.20;101021.03;5011960;28;20089;-74
2022/04/26 10:58:52;;;;;;;8.88;2.60;;;;;;;21.06;17.50;101034.03;5012096;28;20046;-75
2022/04/26 11:01:23;;;;;;;8.82;2.80;;;;;;;21.52;17.09;101030.91;5013097;28;20058;-74
2022/04/26 11:03:57;;;;;;;;;;;;;;;21.30;17.26;101018.75;5013827;28;20042;-74
2022/04/26 11:06:40;;;;;;;6.63;3.13;;;;;;;21.75;16.72;101024.78;5013935;28;19968;-74
2022/04/26 11:09:13;;;;;;;6.53;2.63;;;;;;;21.90;16.85;101029.88;5009006;28;20049;-73
2022/04/26 11:11:52;;;;;;;5.28;2.58;;;;;;;20.70;17.29;101021.94;5013720;28;20137;-74
2022/04/26 11:14:24;;;;;;;5.03;2.78;;;;;;;21.57;16.77;101022.88;5012843;28;20053;-74
2022/04/26 11:17:02;;;;;;;8.85;2.80;;;;;;;21.95;16.76;101024.59;5013478;28;20379;-74
2022/04/26 11:19:37;;;;;;;5.03;2.63;;;;;;;21.52;16.75;101032.78;5006870;28;20399;-73
2022/04/26 11:22:10;;;;;;;5.30;2.92;;;;;;;22.69;15.60;101024.47;5013197;28;20045;-74
2022/04/26 11:30:24;;;;;;;7.22;2.72;;;;;;;24.58;14.31;101024.09;5012302;28;20052;-74
2022/04/26 11:32:51;;;;;;;5.45;2.17;;;;;;;25.06;14.05;101019.16;5013050;28;20050;-74
2022/04/26 11:35:21;;;;;;;3.47;2.63;;;;;;;25.60;13.28;101025.78;5012755;28;20046;-75
2022/04/26 11:37:55;;;;;;;4.85;2.95;;;;;;;23.24;14.94;101032.44;5012581;28;20060;-74
2022/04/26 11:40:32;;;;;;;;;;;;;;;22.48;15.69;101032.13;5011505;28;20076;-74
2022/04/26 11:43:06;;;;;;;4.80;3.00;;;;;;;21.49;16.44;101034.06;5014460;28;19972;-74
2022/04/26 11:45:35;;;;;;;9.88;3.22;;;;;;;20.82;17.45;101032.97;5013775;28;20112;-74
2022/04/26 11:48:01;;;;;;;10.50;3.35;;;;;;;21.68;16.80;101034.13;5013645;28;20100;-74
2022/04/26 11:50:30;;;;;;;3.17;2.58;;;;;;;22.73;15.68;101036.59;5014069;28;20176;-74
2022/04/26 11:53:04;;;;;;;5.13;2.90;;;;;;;23.07;15.43;101037.75;5015172;28;20073;-74
2022/04/26 11:55:36;;;;;;;8.15;3.15;;;;;;;23.03;15.57;101039.28;5014580;28;20076;-74
2022/04/26 11:58:22;;;;;;;5.18;2.78;;;;;;;22.16;16.05;101033.38;5013962;28;20057;-74
2022/04/26 12:00:53;;;;;;;4.13;2.72;;;;;;;22.46;15.71;101039.66;5014791;28;20046;-72
2022/04/26 12:03:21;;;;;;;5.82;2.63;;;;;;;22.33;15.73;101035.25;5010418;28;20512;-71
2022/04/26 12:06:03;;;;;;;7.68;2.80;;;;;;;21.80;16.00;101029.59;5011889;28;20050;-71
2022/04/26 12:08:45;;;;;;;5.05;2.47;;;;;;;22.28;15.73;101026.88;5011394;28;20123;-72
2022/04/26 12:11:20;;;;;;;3.60;2.72;;;;;;;20.05;18.11;101032.09;5013775;28;20068;-71
2022/04/26 12:14:21;;;;;;;7.63;2.90;;;;;;;20.75;17.54;101026.72;5014104;28;20053;-72
2022/04/26 12:16:51;;;;;;;7.03;2.85;;;;;;;21.57;16.94;101027.50;4993066;28;20048;-72
2022/04/26 12:19:18;;;;;;;6.53;3.30;;;;;;;20.82;17.69;101016.59;5014937;28;20112;-72
2022/04/26 12:21:46;;;;;;;7.32;2.80;;;;;;;21.09;17.36;101018.06;5012717;28;20041;-71
2022/04/26 12:24:14;;;;;;;8.57;2.80;;;;;;;21.57;16.47;101036.53;5023251;28;20482;-72
2022/04/26 12:26:55;;;;;;;6.05;2.47;;;;;;;20.54;17.19;101015.09;5018877;28;20046;-71
2022/04/26 12:29:27;;;;;;;4.57;2.90;;;;;;;20.89;16.86;101022.84;5014619;28;20104;-73
2022/04/26 12:31:55;;;;;;;7.80;2.60;;;;;;;21.56;16.02;101014.91;5014316;28;20058;-72
2022/04/26 12:34:29;;;;;;;7.18;3.28;;;;;;;20.38;17.11;101010.97;5014728;28;20046;-72
2022/04/26 12:37:15;;;;;;;7.57;3.13;;;;;;;20.97;16.70;101010.81;5014754;28;20053;-71
2022/04/26 12:39:44;;;;;;;3.70;2.63;;;;;;;21.04;16.82;101011.59;5015154;28;20064;-71
2022/04/26 12:42:17;;;;;;;5.95;2.90;;;;;;;20.47;17.23;101008.88;5014608;28;20057;-71
2022/04/26 12:44:51;;;;;;;3.45;2.40;;;;;;;21.18;16.16;101004.97;5014453;28;20052;-71
2022/04/26 12:53:00;;;;;;;7.25;3.22;;;;;;;20.32;17.11;101000.97;5014598;28;20050;-72
2022/04/26 12:55:29;;;;;;;3.40;2.53;;;;;;;18.93;17.88;101013.00;5014041;28;20053;-72
2022/04/26 12:57:59;;;;;;;7.13;3.92;;;;;;;20.57;16.79;100992.88;5013513;28;20077;-71
2022/04/26 13:00:26;;;;;;;5.85;3.40;;;;;;;20.33;16.50;100994.44;5014918;28;20054;-71
2022/04/26 13:02:56;;;;;;;4.10;2.78;;;;;;;20.08;17.00;100988.94;5015935;28;20070;-76
2022/04/26 13:05:44;;;;;;;11.13;2.80;;;;;;;19.72;16.98;100989.47;5014983;28;20108;-71
2022/04/26 13:08:13;;;;;;;4.18;2.50;;;;;;;19.88;17.00;100986.28;5014646;28;20056;-71
2022/04/26 13:10:40;;;;;;;7.63;2.95;;;;;;;19.59;16.81;100979.47;5015420;28;20115;-71
2022/04/26 13:13:08;;;;;;;3.67;2.33;;;;;;;20.15;16.63;100981.56;5015233;28;20046;-71
2022/04/26 13:15:35;;;;;;;3.58;2.58;;;;;;;20.87;16.01;100978.56;5015068;28;20418;-71
2022/04/26 13:18:03;;;;;;;10.10;3.80;;;;;;;20.84;15.88;100966.25;5015418;28;20050;-71
2022/04/26 13:20:31;;;;;;;5.70;2.50;;;;;;;20.93;15.88;100972.25;5012899;28;20049;-71
2022/04/26 13:22:57;;;;;;;10.15;2.30;;;;;;;20.46;16.58;100979.13;5012653;28;20045;-71
2022/04/26 13:25:25;;;;;;;4.93;2.60;;;;;;;20.04;16.88;100970.50;5013414;28;20082;-71
2022/04/26 13:27:52;;;;;;;10.85;2.22;;;;;;;19.64;17.12;100973.38;5014114;28;20070;-71
2022/04/26 13:30:18;;;;;;;3.47;2.28;;;;;;;19.22;17.32;100978.28;5014956;28;20525;-71
2022/04/26 13:32:45;;;;;;;7.75;2.95;;;;;;;19.38;16.98;100975.13;5011849;28;20046;-71
2022/04/26 13:35:12;;;;;;;9.23;2.35;;;;;;;19.08;17.41;100977.44;5013348;28;20053;-71
2022/04/26 13:37:39;;;;;;;2.78;1.90;;;;;;;21.11;15.83;100971.47;5014295;28;20544;-71
2022/04/26 13:40:07;;;;;;;4.72;2.58;;;;;;;20.81;15.84;100966.69;5014911;28;20692;-72
2022/04/26 13:42:35;;;;;;;7.18;2.55;;;;;;;20.54;16.57;100965.22;5014148;28;20578;-71
2022/04/26 13:45:03;;;;;;;4.35;2.25;;;;;;;20.14;16.71;100957.25;5013617;28;20502;-75
2022/04/26 13:47:30;;;;;;;6.00;2.58;;;;;;;18.96;18.01;100971.78;5013216;28;20058;-71
2022/04/26 13:49:57;;;;;;;5.05;2.63;;;;;;;19.94;17.08;100971.81;5012178;28;20057;-71
2022/04/26 13:52:23;;;;;;;7.25;2.30;;;;;;;20.07;17.17;100973.63;5014285;28;20136;-71
2022/04/26 13:54:50;;;;;;;4.57;2.88;;;;;;;20.22;17.41;100972.53;5014435;28;20108;-71
2022/04/26 13:57:18;;;;;;;6.00;3.13;;;;;;;20.91;17.20;100963.47;4997382;28;20564;-71
2022/04/26 13:59:45;;;;;;;6.45;2.55;;;;;;;20.44;17.69;100973.88;5012847;28;20370;-71
2022/04/26 14:02:13;;;;;;;6.15;2.38;;;;;;;20.41;17.68;100961.50;5012599;28;20048;-71
2022/04/26 14:04:40;;;;;;;3.30;2.53;;;;;;;19.92;17.76;100968.47;5013236;28;20096;-71
2022/04/26 14:07:07;;;;;;;4.15;2.28;;;;;;;19.95;17.71;100970.75;5012659;28;20121;-71
2022/04/26 14:09:34;;;;;;;4.38;2.30;;;;;;;19.60;18.29;100972.13;5012009;28;20046;-71
2022/04/26 14:12:02;;;;;;;7.35;2.30;;;;;;;20.07;17.60;100970.06;5012777;28;20054;-70
2022/04/26 14:22:46;;;;;;;5.22;2.70;;;;;;;19.64;17.98;100967.91;5012433;28;20052;-72
2022/04/26 14:25:13;;;;;;;4.10;2.30;;;;;;;18.85;18.44;100964.25;5012186;28;20398;-71
2022/04/26 14:27:44;;;;;;;4.13;2.58;;;;;;;18.94;18.25;100971.19;5012565;28;20406;-71
2022/04/26 14:30:12;;;;;;;8.90;2.90;;;;;;;18.51;18.49;100973.41;5014941;28;20115;-75
2022/04/26 14:32:59;;;;;;;7.55;2.20;;;;;;;18.95;18.32;100966.56;5018083;28;20061;-72
2022/04/26 14:35:28;;;;;;;7.63;3.30;;;;;;;19.05;18.08;100966.16;5009697;28;20104;-71
2022/04/26 14:37:56;;;;;;;8.68;2.50;;;;;;;19.09;18.29;100970.13;5018177;28;20046;-72
2022/04/26 14:40:23;;;;;;;6.85;2.63;;;;;;;19.19;17.98;100978.69;5017460;28;20050;-71
2022/04/26 14:42:50;;;;;;;6.20;3.03;;;;;;;19.82;17.54;100965.34;5016440;28;20049;-71
2022/04/26 14:45:17;;;;;;;6.80;3.00;;;;;;;20.17;17.15;100964.97;5007660;28;20054;-71
2022/04/26 14:47:44;;;;;;;6.10;2.20;;;;;;;20.52;16.74;100956.41;5016100;28;20108;-71
2022/04/26 14:50:11;;;;;;;7.22;2.53;;;;;;;20.71;16.71;100962.78;5014712;28;20064;-74
2022/04/26 14:52:37;;;;;;;11.60;3.03;;;;;;;20.48;16.50;100961.47;5015821;28;20046;-71
2022/04/26 14:55:08;;;;;;;3.95;2.63;;;;;;;20.24;17.16;100965.78;5015737;28;20441;-73
2022/04/26 14:57:36;;;;;;;5.82;2.00;;;;;;;20.85;16.46;100967.91;5014431;28;20064;-71
2022/04/26 15:00:07;;;;;;;7.55;2.72;;;;;;;21.05;16.16;100956.81;5006901;28;20556;-71
2022/04/26 15:02:41;;;;;;;6.85;2.45;;;;;;;20.95;16.53;100955.66;5012607;28;20100;-72
2022/04/26 15:05:09;;;;;;;3.72;2.25;;;;;;;19.62;17.47;100962.69;5014360;28;20129;-71
2022/04/26 15:10:23;;;;;;;4.18;2.63;;;;;;;20.34;17.07;100960.69;5012562;28;20057;-71
2022/04/26 15:18:21;;;;;;;4.65;2.92;;;;;;;20.83;16.64;100959.09;5014712;28;20080;-71
2022/04/26 15:20:51;;;;;;;7.88;2.60;;;;;;;20.29;16.74;100963.25;5013954;28;20104;-71
2022/04/26 15:23:20;;;;;;;8.40;2.75;;;;;;;20.44;17.15;100965.69;4994384;28;20108;-71
2022/04/26 15:25:50;;;;;;;9.43;3.00;;;;;;;20.03;17.32;100963.38;5009582;28;20482;-71
2022/04/26 15:28:18;;;;;;;10.50;3.03;;;;;;;20.41;16.99;100963.41;5013629;28;20499;-77
2022/04/26 15:30:45;;;;;;;6.45;2.40;;;;;;;21.04;16.70;100963.34;5015397;28;20500;-71
2022/04/26 15:33:12;;;;;;;4.32;2.88;;;;;;;20.78;16.55;100971.75;5015073;28;20046;-71
2022/04/26 15:35:39;;;;;;;11.27;2.95;;;;;;;21.12;16.12;100963.09;5015277;28;20049;-70
2022/04/26 15:38:07;;;;;;;4.32;2.13;;;;;;;20.84;16.62;100971.69;5015137;28;20053;-71
2022/04/26 15:40:34;;;;;;;5.65;3.55;;;;;;;21.07;16.39;100964.78;5014342;28;20050;-71
2022/04/26 15:43:04;;;;;;;7.88;4.22;;;;;;;21.12;16.70;100962.25;5013247;28;20069;-72
2022/04/26 15:45:31;;;;;;;6.90;2.78;;;;;;;21.23;16.35;100975.16;5012352;28;20054;-71